Shonai Airport Shonai JP
ICAO: RJSY
IATA:
Category: Medium
Scheduled Services:

Elevation: 86 ft
TransAlt. 0 ft.

Airport Communications:
RDO:118.8

RJSY Zoom In..

If you have problems with the map follow the link
https://www.worldairports.se/pages/airport.php?
ICAO=RJSY

Runways:

(A) RW 09 length 6562 ft width 148 ft
ILS 110.90 / hdg 88

(B) RW 27 length 6562 ft width 148 ft
LOC 111.50 / hdg 268

Location; RJSY
Day. 22 / Time. 12.00 Zulu
* QNH: 1018
* Temperature: 05° c. 41°f.
* Wind from: 220° Speed 07 kn.
Dewpoint: -02° c.
Visibility: 10 km or more.
Clouds: Few 3000 ft.
Clouds: Broken 5000 ft.

RJSY 221200Z 22007KT 9999 FEW030 BKN050 05/M02 Q1018


Wind From 220°
Speed 07 kn.

 
 
jpsmedia.com for Web Design worldairports.se 2019   terms of use